Time;durP1;ratioP1;P1;durP2;ratioP2;P2;SDS_P1;SDS_P2;PMS_P1;PMS_P2;Temp;Humidity;BMP_temperature;BMP_pressure;BME280_temperature;BME280_humidity;BME280_pressure;Samples;Min_cycle;Max_cycle;Signal;HPM_P1;HPM_P2
2022/01/17 00:01:11;;;;;;;;;65.00;50.00;;;;;;;;5062172;28;11491;-79
2022/01/17 00:03:41;;;;;;;;;52.50;43.50;;;;;;;;5061958;28;11713;-80
2022/01/17 00:06:09;;;;;;;;;49.00;44.75;;;;;;;;5063097;28;11641;-78
2022/01/17 00:08:41;;;;;;;;;47.25;41.75;;;;;;;;5043647;28;11572;-79
2022/01/17 00:11:11;;;;;;;;;17.25;15.75;;;;;;;;5062551;28;12412;-79
2022/01/17 00:13:39;;;;;;;;;58.50;47.75;;;;;;;;5068851;28;11524;-79
2022/01/17 00:16:11;;;;;;;;;42.00;40.75;;;;;;;;5062171;28;12386;-79
2022/01/17 00:21:24;;;;;;;;;56.75;46.25;;;;;;;;5019474;28;11643;-78
2022/01/17 00:23:51;;;;;;;;;61.50;50.25;;;;;;;;5063373;28;11673;-80
2022/01/17 00:26:18;;;;;;;;;53.75;46.75;;;;;;;;5044500;28;11574;-79
2022/01/17 00:28:46;;;;;;;;;41.00;38.25;;;;;;;;5065721;28;11575;-79
2022/01/17 00:31:13;;;;;;;;;52.00;46.25;;;;;;;;5073398;28;11489;-77
2022/01/17 00:33:41;;;;;;;;;58.25;46.75;;;;;;;;5062253;28;11563;-80
2022/01/17 00:36:09;;;;;;;;;46.50;40.00;;;;;;;;5063751;28;11539;-77
2022/01/17 00:38:37;;;;;;;;;54.00;45.25;;;;;;;;5065098;28;11582;-79
2022/01/17 00:41:04;;;;;;;;;51.75;44.75;;;;;;;;5065576;28;11594;-79
2022/01/17 00:43:31;;;;;;;;;51.50;42.75;;;;;;;;5065190;28;11566;-79
2022/01/17 00:45:59;;;;;;;;;55.00;46.25;;;;;;;;5050272;28;11541;-78
2022/01/17 00:48:26;;;;;;;;;44.50;41.75;;;;;;;;5071621;28;11537;-77
2022/01/17 00:50:55;;;;;;;;;53.50;46.00;;;;;;;;5064220;28;12173;-78
2022/01/17 00:53:22;;;;;;;;;43.75;40.25;;;;;;;;5064922;28;11682;-77
2022/01/17 00:55:50;;;;;;;;;39.25;35.00;;;;;;;;5064242;28;11569;-77
2022/01/17 00:58:17;;;;;;;;;54.00;44.50;;;;;;;;5065621;28;11537;-79
2022/01/17 01:00:45;;;;;;;;;58.00;43.50;;;;;;;;5065107;28;11566;-79
2022/01/17 01:03:12;;;;;;;;;53.75;44.75;;;;;;;;5070319;28;11550;-79
2022/01/17 01:05:39;;;;;;;;;71.50;56.00;;;;;;;;5070973;28;11737;-79
2022/01/17 01:08:08;;;;;;;;;72.50;57.50;;;;;;;;5065732;28;11617;-79
2022/01/17 01:10:36;;;;;;;;;80.50;61.50;;;;;;;;5064252;28;12342;-79
2022/01/17 01:13:03;;;;;;;;;81.00;59.00;;;;;;;;5064705;28;13133;-77
2022/01/17 01:15:46;;;;;;;;;82.00;63.75;;;;;;;;5065530;28;11704;-78
2022/01/17 01:18:16;;;;;;;;;71.50;58.25;;;;;;;;5063734;28;11605;-78
2022/01/17 01:29:00;;;;;;;;;56.75;43.50;;;;;;;;5049720;28;11524;-77
2022/01/17 01:31:40;;;;;;;;;64.25;52.00;;;;;;;;5062919;28;11620;-77
2022/01/17 01:34:08;;;;;;;;;58.25;47.00;;;;;;;;5053721;28;11570;-80
2022/01/17 01:36:36;;;;;;;;;56.75;47.00;;;;;;;;5064131;28;11039;-82
2022/01/17 01:39:06;;;;;;;;;53.50;47.25;;;;;;;;5064250;28;12490;-81
2022/01/17 01:41:40;;;;;;;;;52.75;45.75;;;;;;;;5045777;28;11642;-80
2022/01/17 01:44:12;;;;;;;;;35.50;35.50;;;;;;;;5063573;28;11576;-79
2022/01/17 01:46:40;;;;;;;;;48.00;43.25;;;;;;;;5064900;28;11598;-78
2022/01/17 01:49:07;;;;;;;;;48.00;42.25;;;;;;;;5063061;28;11575;-78
2022/01/17 01:51:35;;;;;;;;;42.75;39.75;;;;;;;;5064311;28;12355;-78
2022/01/17 01:54:04;;;;;;;;;38.75;36.50;;;;;;;;5064847;28;12288;-78
2022/01/17 01:56:31;;;;;;;;;46.00;41.25;;;;;;;;5063172;28;11596;-78
2022/01/17 01:58:59;;;;;;;;;48.00;39.50;;;;;;;;5065246;28;12361;-79
2022/01/17 02:01:26;;;;;;;;;52.00;43.25;;;;;;;;5043370;28;11544;-78
2022/01/17 02:03:53;;;;;;;;;52.25;45.50;;;;;;;;5065099;28;12292;-78
2022/01/17 02:06:20;;;;;;;;;44.50;37.50;;;;;;;;5055370;28;11600;-79
2022/01/17 02:08:48;;;;;;;;;47.00;40.25;;;;;;;;5064651;28;11619;-77
2022/01/17 02:11:17;;;;;;;;;40.00;35.00;;;;;;;;5068393;28;11673;-77
2022/01/17 02:13:46;;;;;;;;;36.75;34.75;;;;;;;;5067578;28;11667;-77
2022/01/17 02:16:16;;;;;;;;;58.00;41.75;;;;;;;;5064849;28;11611;-78
2022/01/17 02:18:44;;;;;;;;;56.00;45.75;;;;;;;;5045850;28;11656;-79
2022/01/17 02:21:19;;;;;;;;;57.25;45.75;;;;;;;;5064725;28;11589;-80
2022/01/17 02:23:49;;;;;;;;;53.50;43.25;;;;;;;;5064833;28;11583;-78
2022/01/17 02:26:18;;;;;;;;;54.50;42.75;;;;;;;;5064359;28;11628;-80
2022/01/17 02:28:46;;;;;;;;;45.75;39.50;;;;;;;;5064221;28;11569;-77
2022/01/17 02:31:14;;;;;;;;;63.50;51.25;;;;;;;;5063836;28;11499;-79
2022/01/17 02:33:42;;;;;;;;;50.25;44.00;;;;;;;;5064348;28;11574;-81
2022/01/17 02:36:09;;;;;;;;;49.00;45.00;;;;;;;;5045454;28;11607;-80
2022/01/17 02:38:39;;;;;;;;;53.00;44.00;;;;;;;;5064520;28;11514;-81
2022/01/17 02:41:07;;;;;;;;;50.00;41.50;;;;;;;;5063067;28;11572;-78
2022/01/17 02:43:34;;;;;;;;;41.00;39.00;;;;;;;;5064186;28;11561;-80
2022/01/17 02:48:47;;;;;;;;;52.00;47.25;;;;;;;;5063706;28;11534;-80
2022/01/17 02:51:15;;;;;;;;;52.25;44.25;;;;;;;;5063584;28;11544;-80
2022/01/17 02:53:43;;;;;;;;;51.00;44.00;;;;;;;;5050403;28;11562;-78
2022/01/17 02:56:11;;;;;;;;;50.25;43.50;;;;;;;;5063984;28;11642;-81
2022/01/17 02:58:40;;;;;;;;;49.25;43.25;;;;;;;;5061910;28;11581;-79
2022/01/17 03:01:10;;;;;;;;;47.75;42.75;;;;;;;;5062819;28;12458;-78
2022/01/17 03:03:37;;;;;;;;;43.75;39.00;;;;;;;;5061455;28;11654;-80
2022/01/17 03:06:05;;;;;;;;;39.50;35.50;;;;;;;;5058500;28;12509;-78
2022/01/17 03:08:34;;;;;;;;;31.25;27.00;;;;;;;;5061808;28;11708;-79
2022/01/17 03:11:05;;;;;;;;;35.50;33.75;;;;;;;;5062006;28;11690;-80
2022/01/17 03:13:34;;;;;;;;;46.00;41.25;;;;;;;;5061992;28;11610;-79
2022/01/17 03:16:04;;;;;;;;;41.75;34.25;;;;;;;;5061059;28;11584;-79
2022/01/17 03:18:33;;;;;;;;;36.00;35.50;;;;;;;;5045545;28;11558;-79
2022/01/17 03:21:02;;;;;;;;;29.75;28.00;;;;;;;;5070887;28;11677;-79
2022/01/17 03:23:29;;;;;;;;;32.25;32.25;;;;;;;;5066015;28;11587;-79
2022/01/17 03:25:57;;;;;;;;;36.75;32.75;;;;;;;;5062541;28;12494;-77
2022/01/17 03:28:26;;;;;;;;;38.75;32.50;;;;;;;;5062865;28;11634;-79
2022/01/17 03:30:53;;;;;;;;;25.25;23.75;;;;;;;;5062891;28;12242;-78
2022/01/17 03:33:21;;;;;;;;;25.50;24.50;;;;;;;;5061959;28;11628;-77
2022/01/17 03:35:49;;;;;;;;;24.50;24.50;;;;;;;;5063534;28;11566;-79
2022/01/17 03:38:19;;;;;;;;;22.00;19.50;;;;;;;;5067217;28;11669;-77
2022/01/17 03:40:47;;;;;;;;;20.00;16.75;;;;;;;;5062807;28;12257;-79
2022/01/17 03:43:15;;;;;;;;;27.75;22.25;;;;;;;;5045144;28;11545;-79
2022/01/17 03:45:45;;;;;;;;;22.75;21.00;;;;;;;;5063810;28;11489;-79
2022/01/17 03:48:13;;;;;;;;;22.50;17.50;;;;;;;;5062492;28;11495;-79
2022/01/17 03:50:40;;;;;;;;;20.00;13.75;;;;;;;;5062477;28;11479;-80
2022/01/17 03:53:08;;;;;;;;;19.00;14.00;;;;;;;;5063628;28;11520;-80
2022/01/17 03:55:35;;;;;;;;;19.75;15.75;;;;;;;;5062341;28;11513;-78
2022/01/17 03:58:03;;;;;;;;;21.00;12.00;;;;;;;;5062937;28;11584;-77
2022/01/17 04:00:36;;;;;;;;;19.00;14.75;;;;;;;;5043852;28;11463;-78
2022/01/17 04:03:05;;;;;;;;;17.00;14.00;;;;;;;;5062761;28;11447;-77
2022/01/17 04:05:32;;;;;;;;;13.00;13.00;;;;;;;;5062625;28;12366;-80
2022/01/17 04:07:59;;;;;;;;;22.75;17.00;;;;;;;;5056362;28;11501;-78
2022/01/17 04:10:27;;;;;;;;;14.75;12.75;;;;;;;;5065023;28;11589;-78
2022/01/17 04:13:00;;;;;;;;;13.25;11.00;;;;;;;;5065274;28;11491;-80
2022/01/17 04:15:28;;;;;;;;;14.00;14.00;;;;;;;;5064956;28;11532;-78
2022/01/17 04:17:55;;;;;;;;;12.00;12.00;;;;;;;;5065996;28;11486;-78
2022/01/17 04:20:27;;;;;;;;;18.50;15.00;;;;;;;;5066688;28;12376;-78
2022/01/17 04:22:56;;;;;;;;;12.00;12.00;;;;;;;;5075950;28;12656;-82
2022/01/17 04:25:24;;;;;;;;;12.75;12.75;;;;;;;;5062572;28;12415;-79
2022/01/17 04:27:52;;;;;;;;;13.00;10.00;;;;;;;;5066567;28;12315;-79
2022/01/17 04:30:20;;;;;;;;;15.75;9.25;;;;;;;;5063937;28;11443;-78
2022/01/17 04:32:48;;;;;;;;;19.00;13.25;;;;;;;;5066282;28;11475;-79
2022/01/17 04:35:20;;;;;;;;;18.00;16.75;;;;;;;;5064210;28;11506;-80
2022/01/17 04:37:50;;;;;;;;;20.50;16.00;;;;;;;;5066202;28;12408;-79
2022/01/17 04:40:18;;;;;;;;;23.50;14.75;;;;;;;;5064894;28;11510;-78
2022/01/17 04:42:48;;;;;;;;;8.75;8.75;;;;;;;;5054672;28;11574;-79
2022/01/17 04:45:18;;;;;;;;;17.25;17.25;;;;;;;;5048967;28;11452;-79
2022/01/17 04:47:49;;;;;;;;;18.50;15.50;;;;;;;;5064738;28;11497;-79
2022/01/17 04:50:19;;;;;;;;;21.25;17.50;;;;;;;;5025554;28;11552;-78
2022/01/17 04:52:48;;;;;;;;;22.00;17.25;;;;;;;;5024764;28;11561;-79
2022/01/17 04:55:16;;;;;;;;;20.00;20.00;;;;;;;;5025535;28;12490;-79
2022/01/17 04:57:45;;;;;;;;;22.25;18.50;;;;;;;;5025229;28;11583;-77
2022/01/17 05:00:16;;;;;;;;;23.25;21.25;;;;;;;;5023516;28;11631;-78
2022/01/17 05:02:44;;;;;;;;;22.50;20.25;;;;;;;;5028618;28;11604;-77
2022/01/17 05:05:13;;;;;;;;;28.25;25.00;;;;;;;;5027667;28;11656;-77
2022/01/17 05:07:41;;;;;;;;;23.50;20.00;;;;;;;;5025491;28;11602;-75
2022/01/17 05:10:13;;;;;;;;;21.50;19.25;;;;;;;;5025255;28;11603;-76
2022/01/17 05:12:41;;;;;;;;;26.00;22.50;;;;;;;;5025598;28;11708;-78
2022/01/17 05:15:18;;;;;;;;;46.50;31.25;;;;;;;;5025026;28;11697;-79
2022/01/17 05:17:56;;;;;;;;;24.75;22.25;;;;;;;;5026049;28;11624;-78
2022/01/17 05:20:24;;;;;;;;;22.75;20.25;;;;;;;;5024164;28;11642;-77
2022/01/17 05:22:52;;;;;;;;;24.00;21.75;;;;;;;;5021238;28;11552;-77
2022/01/17 05:25:21;;;;;;;;;26.25;21.75;;;;;;;;5023191;28;11603;-78
2022/01/17 05:27:48;;;;;;;;;28.00;19.00;;;;;;;;5022868;28;12437;-77
2022/01/17 05:30:18;;;;;;;;;17.50;17.50;;;;;;;;5023221;28;12304;-75
2022/01/17 05:32:45;;;;;;;;;14.00;14.00;;;;;;;;5021956;28;11615;-77
2022/01/17 05:35:13;;;;;;;;;22.75;21.75;;;;;;;;5020063;28;11537;-76
2022/01/17 05:37:41;;;;;;;;;21.75;17.00;;;;;;;;5023148;28;11837;-77
2022/01/17 05:40:10;;;;;;;;;21.50;15.50;;;;;;;;5022087;28;12447;-77
2022/01/17 05:42:41;;;;;;;;;16.75;14.75;;;;;;;;5022727;28;11605;-76
2022/01/17 05:45:10;;;;;;;;;18.00;15.75;;;;;;;;5022161;28;11599;-76
2022/01/17 05:47:38;;;;;;;;;18.50;13.25;;;;;;;;5022087;28;11604;-78
2022/01/17 05:50:06;;;;;;;;;13.75;13.00;;;;;;;;5062191;28;11517;-78
2022/01/17 05:52:34;;;;;;;;;12.50;12.25;;;;;;;;5063809;28;11618;-78
2022/01/17 05:55:02;;;;;;;;;14.75;13.50;;;;;;;;5064369;28;11540;-78
2022/01/17 05:57:29;;;;;;;;;17.25;13.00;;;;;;;;5063283;28;11588;-77
2022/01/17 06:00:00;;;;;;;;;17.75;11.00;;;;;;;;5046692;28;11546;-77
2022/01/17 06:02:27;;;;;;;;;22.75;16.50;;;;;;;;5044252;28;11495;-77
2022/01/17 06:04:54;;;;;;;;;12.75;10.25;;;;;;;;5063317;28;11565;-76
2022/01/17 06:07:22;;;;;;;;;16.75;16.75;;;;;;;;5061610;28;11654;-76
2022/01/17 06:09:49;;;;;;;;;10.00;9.00;;;;;;;;5042733;28;11524;-75
2022/01/17 06:12:20;;;;;;;;;19.00;13.25;;;;;;;;5063610;28;11597;-76
2022/01/17 06:14:47;;;;;;;;;10.00;8.00;;;;;;;;5061460;28;11523;-78
2022/01/17 06:17:16;;;;;;;;;12.50;10.00;;;;;;;;5063783;28;11442;-77
2022/01/17 06:19:43;;;;;;;;;11.00;10.50;;;;;;;;5062424;28;11525;-77
2022/01/17 06:22:12;;;;;;;;;10.50;9.75;;;;;;;;5061545;28;11578;-81
2022/01/17 06:24:39;;;;;;;;;10.50;8.50;;;;;;;;5042173;28;11472;-81
2022/01/17 06:27:07;;;;;;;;;10.50;9.00;;;;;;;;5064357;28;11493;-82
2022/01/17 06:29:34;;;;;;;;;12.75;10.50;;;;;;;;5063277;28;11479;-85
2022/01/17 06:32:01;;;;;;;;;8.50;8.50;;;;;;;;5044279;28;12209;-78
2022/01/17 06:34:30;;;;;;;;;12.75;11.50;;;;;;;;5061396;28;11539;-81
2022/01/17 06:36:58;;;;;;;;;15.50;13.00;;;;;;;;5058134;28;11545;-82
2022/01/17 06:39:25;;;;;;;;;16.50;15.00;;;;;;;;5061071;28;11732;-79
2022/01/17 06:41:53;;;;;;;;;14.75;13.00;;;;;;;;5059601;28;11521;-79
2022/01/17 06:44:20;;;;;;;;;13.00;13.00;;;;;;;;5063282;28;11486;-82
2022/01/17 06:46:47;;;;;;;;;17.25;17.25;;;;;;;;5061776;28;11529;-77
2022/01/17 06:49:14;;;;;;;;;12.50;11.00;;;;;;;;5062969;28;11556;-76
2022/01/17 06:51:43;;;;;;;;;13.50;12.25;;;;;;;;5062599;28;11555;-78
2022/01/17 06:54:11;;;;;;;;;25.25;19.00;;;;;;;;5062581;28;11509;-76
2022/01/17 06:56:43;;;;;;;;;19.50;19.50;;;;;;;;5063731;28;12378;-78
2022/01/17 06:59:11;;;;;;;;;21.25;18.75;;;;;;;;5060881;28;11715;-80
2022/01/17 07:01:39;;;;;;;;;17.50;16.75;;;;;;;;5062907;28;12382;-80
2022/01/17 07:04:07;;;;;;;;;19.00;16.50;;;;;;;;5044310;28;11561;-79
2022/01/17 07:06:34;;;;;;;;;18.50;17.50;;;;;;;;5062836;28;11553;-80
2022/01/17 07:09:05;;;;;;;;;23.75;23.25;;;;;;;;5063508;28;11542;-77
2022/01/17 07:11:37;;;;;;;;;20.00;17.50;;;;;;;;5062810;28;12471;-79
2022/01/17 07:14:05;;;;;;;;;22.00;19.75;;;;;;;;5063733;28;11561;-78
2022/01/17 07:16:33;;;;;;;;;31.75;22.75;;;;;;;;5062336;28;11543;-75
2022/01/17 07:19:00;;;;;;;;;24.50;23.25;;;;;;;;5045957;28;11644;-78
2022/01/17 07:21:28;;;;;;;;;40.00;34.25;;;;;;;;5061932;28;12320;-80
2022/01/17 07:23:56;;;;;;;;;22.50;22.50;;;;;;;;5044648;28;11563;-82
2022/01/17 07:26:25;;;;;;;;;29.50;22.25;;;;;;;;5062189;28;11667;-79
2022/01/17 07:28:52;;;;;;;;;21.25;17.25;;;;;;;;5061232;28;11561;-77
2022/01/17 07:31:20;;;;;;;;;26.25;18.75;;;;;;;;5061371;28;11484;-78
2022/01/17 07:33:47;;;;;;;;;24.25;21.50;;;;;;;;5059393;28;11571;-78
2022/01/17 07:36:19;;;;;;;;;26.50;23.50;;;;;;;;5074736;28;11535;-77
2022/01/17 07:38:47;;;;;;;;;32.75;28.00;;;;;;;;5062978;28;11560;-78
2022/01/17 07:41:15;;;;;;;;;27.25;25.25;;;;;;;;5061088;28;11740;-77
2022/01/17 07:43:44;;;;;;;;;33.25;25.00;;;;;;;;5062947;28;11692;-78
2022/01/17 07:46:23;;;;;;;;;22.50;22.50;;;;;;;;5061069;28;11551;-82
2022/01/17 07:49:08;;;;;;;;;35.75;26.25;;;;;;;;5062197;28;11614;-78
2022/01/17 07:51:36;;;;;;;;;30.25;26.75;;;;;;;;5061809;28;11618;-78
2022/01/17 07:54:05;;;;;;;;;27.50;27.50;;;;;;;;5062571;28;11569;-76
2022/01/17 07:56:33;;;;;;;;;31.25;21.50;;;;;;;;5060558;28;11547;-76
2022/01/17 07:59:02;;;;;;;;;25.25;24.00;;;;;;;;5060712;28;11588;-74
2022/01/17 08:01:29;;;;;;;;;34.75;30.00;;;;;;;;5061553;28;11625;-75
2022/01/17 08:03:56;;;;;;;;;27.50;21.50;;;;;;;;5061338;28;11956;-74
2022/01/17 08:06:24;;;;;;;;;33.75;28.25;;;;;;;;5062343;28;11552;-76
2022/01/17 08:08:51;;;;;;;;;36.50;25.00;;;;;;;;5061391;28;11546;-76
2022/01/17 08:11:19;;;;;;;;;35.50;31.00;;;;;;;;5059262;28;11614;-76
2022/01/17 08:13:46;;;;;;;;;27.50;25.50;;;;;;;;5042734;28;11559;-77
2022/01/17 08:16:16;;;;;;;;;30.25;27.25;;;;;;;;5061169;28;11498;-77
2022/01/17 08:18:43;;;;;;;;;30.00;27.25;;;;;;;;5062027;28;11533;-77
2022/01/17 08:21:10;;;;;;;;;29.00;23.50;;;;;;;;5059112;28;11576;-78
2022/01/17 08:23:38;;;;;;;;;35.25;28.75;;;;;;;;5063789;28;11541;-79
2022/01/17 08:26:05;;;;;;;;;29.75;25.75;;;;;;;;5040720;28;11554;-78
2022/01/17 08:28:32;;;;;;;;;35.00;33.00;;;;;;;;5062176;28;11555;-79
2022/01/17 08:30:59;;;;;;;;;37.25;32.75;;;;;;;;5060204;28;11506;-80
2022/01/17 08:33:31;;;;;;;;;36.25;33.25;;;;;;;;5043383;28;11558;-80
2022/01/17 08:35:58;;;;;;;;;39.25;31.25;;;;;;;;5060040;28;11567;-78
2022/01/17 08:38:35;;;;;;;;;35.25;31.00;;;;;;;;5044170;28;11639;-81
2022/01/17 08:41:02;;;;;;;;;27.25;25.75;;;;;;;;5062208;28;11569;-80
2022/01/17 08:43:30;;;;;;;;;35.00;34.00;;;;;;;;5058313;28;12357;-80
2022/01/17 08:45:57;;;;;;;;;32.50;29.25;;;;;;;;5062769;28;11720;-79
2022/01/17 08:48:26;;;;;;;;;40.00;31.75;;;;;;;;5060848;28;11556;-78
2022/01/17 08:50:54;;;;;;;;;22.00;18.25;;;;;;;;5045210;28;11559;-79
2022/01/17 08:53:21;;;;;;;;;29.25;23.25;;;;;;;;5061409;28;11554;-79
2022/01/17 08:55:49;;;;;;;;;56.25;43.50;;;;;;;;5061758;28;11598;-79
2022/01/17 08:58:16;;;;;;;;;31.75;31.00;;;;;;;;5065462;28;11528;-79
2022/01/17 09:00:45;;;;;;;;;41.50;29.50;;;;;;;;5064266;28;11493;-80
2022/01/17 09:03:13;;;;;;;;;38.75;30.50;;;;;;;;5064985;28;11594;-81
2022/01/17 09:05:45;;;;;;;;;29.00;26.25;;;;;;;;5064065;28;11560;-80
2022/01/17 09:08:13;;;;;;;;;20.50;20.50;;;;;;;;5049083;28;11653;-78
2022/01/17 09:10:40;;;;;;;;;45.75;29.25;;;;;;;;5045662;28;11556;-78
2022/01/17 09:13:08;;;;;;;;;35.25;29.25;;;;;;;;5063122;28;12230;-80
2022/01/17 09:15:36;;;;;;;;;23.50;22.00;;;;;;;;5065154;28;11593;-80
2022/01/17 09:18:03;;;;;;;;;38.75;34.00;;;;;;;;5068360;28;11542;-79
2022/01/17 09:20:34;;;;;;;;;39.00;28.50;;;;;;;;5045742;28;11525;-78
2022/01/17 09:23:04;;;;;;;;;25.25;23.50;;;;;;;;5064818;28;12162;-76
2022/01/17 09:25:32;;;;;;;;;23.50;19.25;;;;;;;;5066275;28;11557;-78
2022/01/17 09:28:00;;;;;;;;;31.00;22.25;;;;;;;;5062840;28;11482;-80
2022/01/17 09:30:28;;;;;;;;;36.25;29.75;;;;;;;;5046088;28;11597;-78
2022/01/17 09:32:56;;;;;;;;;33.50;31.50;;;;;;;;5046658;28;11548;-79
2022/01/17 09:35:23;;;;;;;;;37.00;32.50;;;;;;;;5064592;28;11525;-81
2022/01/17 09:37:51;;;;;;;;;38.00;25.50;;;;;;;;5063929;28;11582;-80
2022/01/17 09:40:20;;;;;;;;;31.50;27.25;;;;;;;;5064315;28;11558;-81
2022/01/17 09:42:48;;;;;;;;;43.25;34.75;;;;;;;;5063898;28;11567;-76
2022/01/17 09:45:17;;;;;;;;;32.25;29.00;;;;;;;;5063905;28;11577;-80
2022/01/17 09:47:45;;;;;;;;;27.50;25.75;;;;;;;;5063271;28;11584;-77
2022/01/17 09:50:17;;;;;;;;;25.75;25.75;;;;;;;;5064087;28;12427;-79
2022/01/17 09:52:48;;;;;;;;;27.75;23.25;;;;;;;;5063166;28;11547;-77
2022/01/17 09:55:20;;;;;;;;;31.25;24.00;;;;;;;;5052738;28;11508;-78
2022/01/17 09:57:52;;;;;;;;;37.25;26.00;;;;;;;;5064436;28;11645;-78
2022/01/17 10:00:24;;;;;;;;;34.50;32.00;;;;;;;;5043549;28;11720;-78
2022/01/17 10:02:51;;;;;;;;;31.50;29.75;;;;;;;;5064035;28;11582;-79
2022/01/17 10:05:19;;;;;;;;;37.75;30.50;;;;;;;;5064074;28;11571;-80
2022/01/17 10:07:58;;;;;;;;;36.50;31.25;;;;;;;;5061768;28;11547;-76
2022/01/17 10:10:37;;;;;;;;;32.75;28.75;;;;;;;;5061167;28;11594;-77
2022/01/17 10:13:23;;;;;;;;;41.75;35.50;;;;;;;;5065303;28;12189;-75
2022/01/17 10:16:02;;;;;;;;;18.25;16.75;;;;;;;;5058926;28;11650;-79
2022/01/17 10:18:38;;;;;;;;;30.50;26.75;;;;;;;;5059768;28;11535;-80
2022/01/17 10:21:09;;;;;;;;;30.00;24.00;;;;;;;;5063946;28;11535;-77
2022/01/17 10:29:33;;;;;;;;;29.25;22.25;;;;;;;;5019274;28;11564;-79
2022/01/17 10:34:57;;;;;;;;;31.25;26.25;;;;;;;;5063397;28;11470;-75
2022/01/17 10:37:25;;;;;;;;;33.25;27.00;;;;;;;;5062689;28;11530;-76
2022/01/17 10:39:59;;;;;;;;;25.25;22.75;;;;;;;;5063300;28;11578;-76
2022/01/17 10:42:32;;;;;;;;;27.75;23.25;;;;;;;;5027710;28;11519;-76
2022/01/17 10:45:06;;;;;;;;;24.00;19.25;;;;;;;;5043285;28;11504;-76
2022/01/17 10:47:37;;;;;;;;;13.50;10.75;;;;;;;;5063572;28;11497;-76
2022/01/17 10:50:09;;;;;;;;;32.50;22.00;;;;;;;;5062311;28;11473;-78
2022/01/17 10:52:38;;;;;;;;;22.25;20.75;;;;;;;;5059080;28;12256;-77
2022/01/17 10:55:10;;;;;;;;;31.00;29.75;;;;;;;;5063423;28;11587;-82
2022/01/17 10:57:40;;;;;;;;;30.25;26.50;;;;;;;;5062379;28;11629;-79
2022/01/17 11:00:12;;;;;;;;;30.75;25.75;;;;;;;;5065316;28;11545;-78
2022/01/17 11:02:41;;;;;;;;;28.75;26.25;;;;;;;;5060795;28;11493;-81
2022/01/17 11:05:11;;;;;;;;;31.50;26.00;;;;;;;;5062991;28;11495;-81
2022/01/17 11:07:44;;;;;;;;;26.00;26.00;;;;;;;;5061234;28;11491;-79
2022/01/17 11:10:16;;;;;;;;;32.00;32.00;;;;;;;;5064107;28;12026;-80
2022/01/17 11:12:44;;;;;;;;;26.25;22.75;;;;;;;;5062525;28;11521;-81
2022/01/17 11:15:14;;;;;;;;;26.25;21.75;;;;;;;;5064043;28;11496;-78
2022/01/17 11:17:47;;;;;;;;;30.25;26.00;;;;;;;;5062770;28;11496;-78
2022/01/17 11:20:15;;;;;;;;;26.75;24.50;;;;;;;;5063510;28;11681;-77
2022/01/17 11:22:46;;;;;;;;;30.50;28.25;;;;;;;;5061254;28;11637;-81
2022/01/17 11:25:18;;;;;;;;;30.00;24.25;;;;;;;;5067861;28;11553;-82
2022/01/17 11:27:46;;;;;;;;;28.50;25.25;;;;;;;;5072089;28;11572;-81
2022/01/17 11:30:16;;;;;;;;;33.00;26.25;;;;;;;;5073087;28;11560;-80
2022/01/17 11:32:45;;;;;;;;;28.00;24.25;;;;;;;;5072727;28;11501;-77
2022/01/17 11:35:13;;;;;;;;;39.75;29.00;;;;;;;;5073265;28;11468;-80
2022/01/17 11:37:43;;;;;;;;;30.25;27.00;;;;;;;;5061395;28;11483;-77
2022/01/17 11:40:12;;;;;;;;;26.00;23.75;;;;;;;;5063174;28;11546;-75
2022/01/17 11:42:42;;;;;;;;;27.75;25.25;;;;;;;;5059227;28;11496;-76
2022/01/17 11:45:36;;;;;;;;;29.00;27.00;;;;;;;;5069266;28;11503;-82
2022/01/17 11:48:20;;;;;;;;;31.50;29.75;;;;;;;;5067850;28;11312;-80
2022/01/17 11:50:49;;;;;;;;;22.50;17.75;;;;;;;;5059506;28;12410;-83
2022/01/17 11:53:47;;;;;;;;;27.25;25.00;;;;;;;;5062410;28;11476;-77
2022/01/17 11:56:37;;;;;;;;;32.00;28.00;;;;;;;;5017663;28;11600;-81
2022/01/17 11:59:40;;;;;;;;;23.00;21.00;;;;;;;;5051202;28;11513;-72
2022/01/17 12:02:22;;;;;;;;;30.00;29.25;;;;;;;;5061117;28;11452;-74
2022/01/17 12:05:25;;;;;;;;;34.25;30.75;;;;;;;;5061053;28;12357;-76
2022/01/17 12:07:54;;;;;;;;;32.00;27.00;;;;;;;;5063197;28;11629;-74
2022/01/17 12:10:23;;;;;;;;;31.00;28.25;;;;;;;;5062401;28;11682;-74
2022/01/17 12:13:41;;;;;;;;;34.50;26.75;;;;;;;;5061347;28;11528;-79
2022/01/17 12:16:17;;;;;;;;;27.50;23.75;;;;;;;;4980303;28;11596;-79
2022/01/17 12:18:47;;;;;;;;;23.25;23.00;;;;;;;;5048059;28;11478;-78
2022/01/17 12:21:31;;;;;;;;;27.00;24.25;;;;;;;;5060489;28;11656;-79
2022/01/17 12:24:39;;;;;;;;;20.00;19.00;;;;;;;;5064829;28;11524;-79
2022/01/17 12:27:19;;;;;;;;;32.50;29.50;;;;;;;;5057380;28;11478;-74
2022/01/17 12:29:55;;;;;;;;;28.50;24.00;;;;;;;;5060515;28;12285;-77
2022/01/17 12:32:48;;;;;;;;;32.75;32.75;;;;;;;;5061415;28;11488;-77
2022/01/17 12:35:26;;;;;;;;;36.50;25.75;;;;;;;;5060358;28;11574;-75
2022/01/17 12:37:56;;;;;;;;;28.25;26.00;;;;;;;;5062365;28;11514;-76
2022/01/17 12:40:26;;;;;;;;;19.25;19.25;;;;;;;;5065334;28;11485;-75
2022/01/17 12:42:57;;;;;;;;;32.50;23.25;;;;;;;;5065022;28;11629;-74
2022/01/17 12:45:26;;;;;;;;;21.75;21.75;;;;;;;;5067017;28;11484;-76
2022/01/17 12:47:55;;;;;;;;;23.00;21.25;;;;;;;;5064503;28;11500;-71
2022/01/17 12:50:27;;;;;;;;;24.50;22.25;;;;;;;;5062454;28;11565;-81
2022/01/17 12:52:56;;;;;;;;;29.50;25.25;;;;;;;;5062102;28;11564;-74
2022/01/17 12:55:25;;;;;;;;;34.25;25.50;;;;;;;;5066544;28;11510;-74
2022/01/17 12:57:52;;;;;;;;;22.25;20.50;;;;;;;;5064795;28;11616;-77
2022/01/17 13:00:22;;;;;;;;;31.75;28.25;;;;;;;;5063971;28;12478;-76
2022/01/17 13:02:52;;;;;;;;;38.25;37.00;;;;;;;;5064154;28;12235;-79
2022/01/17 13:05:26;;;;;;;;;25.50;18.75;;;;;;;;5062720;28;11495;-81
2022/01/17 13:07:54;;;;;;;;;20.25;17.75;;;;;;;;5062247;28;11542;-77
2022/01/17 13:10:22;;;;;;;;;18.25;18.00;;;;;;;;5062665;28;11511;-81
2022/01/17 13:12:51;;;;;;;;;23.50;17.25;;;;;;;;5065972;28;11631;-80
2022/01/17 13:15:19;;;;;;;;;21.50;17.00;;;;;;;;5067384;28;11623;-76
2022/01/17 13:17:51;;;;;;;;;18.00;14.75;;;;;;;;5064655;28;11483;-87
2022/01/17 13:20:20;;;;;;;;;17.75;14.50;;;;;;;;5065474;28;11168;-84
2022/01/17 13:22:56;;;;;;;;;20.75;14.00;;;;;;;;5047522;28;12291;-77
2022/01/17 13:25:23;;;;;;;;;22.00;18.00;;;;;;;;5066769;28;11504;-78
2022/01/17 13:27:57;;;;;;;;;14.75;14.75;;;;;;;;5065820;28;11603;-79
2022/01/17 13:30:24;;;;;;;;;16.50;13.50;;;;;;;;5065887;28;11416;-80
2022/01/17 13:32:51;;;;;;;;;19.25;16.75;;;;;;;;5067194;28;11222;-79
2022/01/17 13:35:22;;;;;;;;;11.75;10.50;;;;;;;;5066369;28;11299;-80
2022/01/17 13:37:52;;;;;;;;;15.75;13.75;;;;;;;;5047111;28;11161;-80
2022/01/17 13:40:22;;;;;;;;;13.75;13.00;;;;;;;;5067084;28;11111;-81
2022/01/17 13:42:54;;;;;;;;;15.00;10.25;;;;;;;;5067333;28;11179;-83
2022/01/17 13:45:37;;;;;;;;;20.50;14.75;;;;;;;;5058679;28;11256;-84
2022/01/17 13:48:08;;;;;;;;;11.75;11.75;;;;;;;;5058424;28;11146;-72
2022/01/17 13:50:37;;;;;;;;;7.00;5.25;;;;;;;;5070307;28;11109;-84
2022/01/17 13:53:06;;;;;;;;;11.00;11.00;;;;;;;;5065743;28;10992;-77
2022/01/17 13:55:38;;;;;;;;;11.00;10.00;;;;;;;;5065990;28;10951;-82
2022/01/17 13:58:08;;;;;;;;;14.50;10.75;;;;;;;;5066631;28;10900;-84
2022/01/17 14:00:42;;;;;;;;;7.50;5.75;;;;;;;;5068141;28;10784;-86
2022/01/17 14:03:10;;;;;;;;;10.50;9.75;;;;;;;;5066877;28;11029;-86
2022/01/17 14:05:40;;;;;;;;;10.75;10.75;;;;;;;;5068804;28;10908;-84
2022/01/17 14:08:18;;;;;;;;;10.25;10.00;;;;;;;;5057964;28;10707;-80
2022/01/17 14:13:43;;;;;;;;;17.00;14.00;;;;;;;;5065283;28;10737;-85
2022/01/17 14:16:20;;;;;;;;;10.25;8.50;;;;;;;;5054987;28;11597;-86
2022/01/17 14:18:50;;;;;;;;;9.25;9.25;;;;;;;;5066810;28;10765;-86
2022/01/17 14:21:25;;;;;;;;;12.00;10.00;;;;;;;;5066711;28;10705;-86
2022/01/17 14:24:13;;;;;;;;;12.00;12.00;;;;;;;;5076814;28;10843;-87
2022/01/17 14:26:42;;;;;;;;;14.50;10.00;;;;;;;;5066047;28;10810;-83
2022/01/17 14:29:11;;;;;;;;;11.75;10.75;;;;;;;;5063252;28;10825;-84
2022/01/17 14:31:40;;;;;;;;;12.50;11.00;;;;;;;;5064590;28;10555;-84
2022/01/17 14:34:16;;;;;;;;;8.50;8.50;;;;;;;;5065975;28;11397;-85
2022/01/17 14:36:45;;;;;;;;;9.25;8.50;;;;;;;;5064708;28;10360;-84
2022/01/17 14:39:13;;;;;;;;;15.75;11.75;;;;;;;;5066415;28;10419;-81
2022/01/17 14:41:48;;;;;;;;;6.25;5.75;;;;;;;;5064509;28;10420;-84
2022/01/17 14:44:17;;;;;;;;;12.00;9.75;;;;;;;;5066271;28;10211;-84
2022/01/17 14:46:47;;;;;;;;;13.50;11.00;;;;;;;;5065154;28;10206;-84
2022/01/17 14:49:15;;;;;;;;;16.00;16.00;;;;;;;;5065721;28;10202;-84
2022/01/17 14:51:47;;;;;;;;;20.25;18.75;;;;;;;;5066716;28;10325;-83
2022/01/17 14:54:18;;;;;;;;;13.00;12.00;;;;;;;;5064120;28;10375;-83
2022/01/17 14:59:48;;;;;;;;;12.75;12.75;;;;;;;;5065234;28;9755;-84
2022/01/17 15:02:23;;;;;;;;;9.50;8.00;;;;;;;;5064691;28;9839;-80
2022/01/17 15:04:51;;;;;;;;;37.50;35.50;;;;;;;;5065002;28;9772;-80